createdAt,value
2023-08-08T00:03:48.964Z,12.9
2023-08-08T00:13:49.905Z,12.9
2023-08-08T00:33:50.436Z,12.9
2023-08-08T00:43:51.064Z,12.8
2023-08-08T00:53:51.791Z,12.8
2023-08-08T01:03:52.745Z,12.8
2023-08-08T01:13:53.137Z,12.7
2023-08-08T01:23:53.481Z,12.5
2023-08-08T01:33:54.476Z,12.5
2023-08-08T01:43:55.237Z,12.3
2023-08-08T01:53:55.644Z,12.1
2023-08-08T02:03:56.476Z,12.2
2023-08-08T02:13:57.153Z,12.3
2023-08-08T02:33:58.526Z,12.4
2023-08-08T02:43:59.311Z,12.6
2023-08-08T02:53:59.487Z,12.6
2023-08-08T03:04:00.266Z,12.6
2023-08-08T03:14:00.997Z,12.6
2023-08-08T03:24:01.610Z,12.7
2023-08-08T03:44:03.524Z,12.9
2023-08-08T03:54:04.069Z,12.9
2023-08-08T04:04:04.386Z,12.9
2023-08-08T04:14:05.396Z,12.9
2023-08-08T04:24:06.303Z,12.9
2023-08-08T04:34:06.527Z,13
2023-08-08T04:44:07.024Z,13.1
2023-08-08T04:54:07.335Z,13.2
2023-08-08T05:04:08.067Z,13.3
2023-08-08T05:14:08.557Z,13.4
2023-08-08T05:24:09.064Z,13.5
2023-08-08T05:34:09.396Z,13.6
2023-08-08T05:44:09.727Z,13.6
2023-08-08T06:04:10.880Z,13.9
2023-08-08T06:14:11.854Z,14
2023-08-08T06:24:12.982Z,14
2023-08-08T06:34:13.177Z,13.9
2023-08-08T06:44:13.932Z,14.1
2023-08-08T07:04:15.003Z,14.7
2023-08-08T07:14:15.934Z,14.9
2023-08-08T07:24:16.508Z,15
2023-08-08T07:34:16.851Z,15
2023-08-08T08:04:18.114Z,15.8
2023-08-08T08:14:18.453Z,16.4
2023-08-08T08:34:19.916Z,16.5
2023-08-08T08:54:21.133Z,16.5
2023-08-08T09:14:22.719Z,17.8
2023-08-08T09:34:23.879Z,18.2
2023-08-08T09:54:25.094Z,18.5
2023-08-08T10:04:25.567Z,18.8
2023-08-08T10:14:26.069Z,19.3
2023-08-08T10:34:27.884Z,19.5
2023-08-08T10:44:28.686Z,18.9
2023-08-08T10:54:29.100Z,19.3
2023-08-08T11:04:29.761Z,19
2023-08-08T11:14:30.526Z,19.6
2023-08-08T11:24:30.947Z,18.9
2023-08-08T11:44:32.241Z,18.4
2023-08-08T11:54:32.642Z,17.7
2023-08-08T12:04:32.957Z,17.3
2023-08-08T12:14:34.568Z,19.1
2023-08-08T12:24:34.201Z,18.9
2023-08-08T12:34:34.715Z,19.1
2023-08-08T12:44:35.368Z,19.3
2023-08-08T12:54:36.400Z,18.5
2023-08-08T13:04:36.733Z,19.1
2023-08-08T13:24:37.546Z,18.8
2023-08-08T13:34:37.744Z,19.5
2023-08-08T13:54:38.935Z,19.6
2023-08-08T14:04:39.383Z,19.3
2023-08-08T14:14:40.175Z,20.1
2023-08-08T14:24:40.565Z,20.3
2023-08-08T14:44:42.607Z,19.7
2023-08-08T15:04:43.238Z,19.3
2023-08-08T15:14:43.553Z,19.3
2023-08-08T15:34:44.338Z,19.3
2023-08-08T15:44:44.604Z,19.5
2023-08-08T15:54:45.299Z,20.3
2023-08-08T16:04:46.182Z,20.1
2023-08-08T16:14:46.446Z,20
2023-08-08T16:24:46.993Z,19.6
2023-08-08T16:34:47.103Z,19.4
2023-08-08T16:44:47.207Z,19.8
2023-08-08T17:04:48.441Z,20
2023-08-08T17:14:49.349Z,19.5
2023-08-08T17:24:49.635Z,19
2023-08-08T17:44:50.981Z,18.6
2023-08-08T17:54:51.193Z,18.3
2023-08-08T18:04:52.097Z,18
2023-08-08T18:14:52.357Z,17.8
2023-08-08T18:34:54.285Z,17.6
2023-08-08T19:04:56.898Z,17.1
2023-08-08T19:14:57.624Z,16.9
2023-08-08T19:34:58.770Z,16.3
2023-08-08T19:44:59.594Z,16
2023-08-08T19:55:00.291Z,15.8
2023-08-08T20:05:01.253Z,15.5
2023-08-08T20:15:01.488Z,15.1
2023-08-08T20:25:01.672Z,14.8
2023-08-08T20:35:02.097Z,14.4
2023-08-08T20:45:02.803Z,14
2023-08-08T21:15:04.582Z,13.3
2023-08-08T21:25:04.893Z,13.2
2023-08-08T21:35:05.712Z,13.1
2023-08-08T21:45:06.191Z,13.1
2023-08-08T21:55:06.477Z,13
2023-08-08T22:15:07.524Z,13
2023-08-08T22:25:08.175Z,12.9
2023-08-08T22:35:08.795Z,12.9
2023-08-08T22:45:09.000Z,12.8
2023-08-08T23:05:10.330Z,12.8
2023-08-08T23:15:11.041Z,12.8
2023-08-08T23:25:11.926Z,12.8
2023-08-08T23:35:12.438Z,12.8
2023-08-08T23:45:12.754Z,12.8
2023-08-08T23:55:13.527Z,12.8
